createdAt,value
2023-12-11T00:03:40.332Z,9.20
2023-12-11T00:09:01.557Z,9.20
2023-12-11T00:14:22.608Z,7.32
2023-12-11T00:19:43.745Z,11.55
2023-12-11T00:25:06.153Z,8.23
2023-12-11T00:30:27.743Z,9.50
2023-12-11T00:35:49.436Z,16.53
2023-12-11T00:41:10.690Z,11.63
2023-12-11T00:46:31.800Z,8.80
2023-12-11T00:51:54.558Z,9.50
2023-12-11T00:57:16.328Z,10.45
2023-12-11T01:02:37.508Z,16.57
2023-12-11T01:07:58.618Z,9.20
2023-12-11T01:13:19.481Z,8.30
2023-12-11T01:18:40.618Z,9.70
2023-12-11T01:24:01.939Z,8.33
2023-12-11T01:29:22.918Z,9.30
2023-12-11T01:34:43.951Z,8.77
2023-12-11T01:40:06.456Z,8.97
2023-12-11T01:45:27.438Z,9.88
2023-12-11T01:50:48.515Z,9.55
2023-12-11T01:56:10.573Z,8.40
2023-12-11T02:01:31.734Z,8.88
2023-12-11T02:06:52.662Z,8.02
2023-12-11T02:12:13.707Z,17.63
2023-12-11T02:17:34.805Z,9.05
2023-12-11T02:22:58.962Z,9.27
2023-12-11T02:28:19.837Z,9.40
2023-12-11T02:33:41.378Z,8.20
2023-12-11T02:39:02.804Z,6.77
2023-12-11T02:44:24.249Z,6.40
2023-12-11T02:49:45.890Z,6.33
2023-12-11T02:55:09.685Z,7.27
2023-12-11T03:00:32.426Z,6.78
2023-12-11T03:05:53.722Z,6.75
2023-12-11T03:11:14.892Z,7.20
2023-12-11T03:16:36.150Z,7.40
2023-12-11T03:21:57.249Z,6.90
2023-12-11T03:27:21.621Z,7.13
2023-12-11T03:32:43.024Z,6.47
2023-12-11T03:38:04.338Z,5.90
2023-12-11T03:43:25.327Z,6.72
2023-12-11T03:48:46.899Z,6.45
2023-12-11T03:54:08.495Z,6.18
2023-12-11T03:59:29.451Z,7.38
2023-12-11T04:04:50.718Z,7.00
2023-12-11T04:10:11.947Z,7.20
2023-12-11T04:15:34.391Z,6.77
2023-12-11T04:20:55.498Z,6.32
2023-12-11T04:26:16.558Z,6.97
2023-12-11T04:31:37.574Z,6.82
2023-12-11T04:36:58.659Z,8.27
2023-12-11T04:42:20.181Z,7.20
2023-12-11T04:47:41.349Z,8.65
2023-12-11T04:53:02.856Z,8.47
2023-12-11T04:58:23.997Z,7.60
2023-12-11T05:03:45.671Z,7.73
2023-12-11T05:09:07.776Z,7.65
2023-12-11T05:14:29.001Z,7.37
2023-12-11T05:19:50.325Z,7.20
2023-12-11T05:25:12.121Z,7.17
2023-12-11T05:30:33.384Z,7.35
2023-12-11T05:35:55.167Z,7.00
2023-12-11T05:41:17.195Z,7.63
2023-12-11T05:46:38.757Z,8.73
2023-12-11T05:52:00.508Z,8.60
2023-12-11T05:57:21.844Z,8.67
2023-12-11T06:02:43.147Z,7.05
2023-12-11T06:08:06.046Z,7.22
2023-12-11T06:13:27.560Z,6.73
2023-12-11T06:18:49.100Z,8.90
2023-12-11T06:24:10.646Z,8.45
2023-12-11T06:29:32.168Z,8.87
2023-12-11T06:34:53.580Z,8.50
2023-12-11T06:40:15.180Z,8.90
2023-12-11T06:45:38.700Z,11.77
2023-12-11T06:51:00.642Z,6.03
2023-12-11T06:56:22.447Z,23.63
2023-12-11T07:01:44.101Z,6.47
2023-12-11T07:07:05.623Z,6.82
2023-12-11T07:12:27.076Z,5.83
2023-12-11T07:17:48.431Z,7.78
2023-12-11T07:23:11.502Z,8.93
2023-12-11T07:28:32.775Z,7.43
2023-12-11T07:33:57.044Z,7.85
2023-12-11T07:39:18.992Z,6.10
2023-12-11T07:44:40.104Z,6.50
2023-12-11T07:50:02.125Z,5.53
2023-12-11T07:55:23.413Z,6.35
2023-12-11T08:00:45.143Z,8.45
2023-12-11T08:06:06.915Z,6.43
2023-12-11T08:11:31.208Z,5.70
2023-12-11T08:16:52.837Z,5.30
2023-12-11T08:22:15.006Z,5.38
2023-12-11T08:27:36.202Z,5.50
2023-12-11T08:32:57.799Z,4.80
2023-12-11T08:38:19.939Z,4.87
2023-12-11T08:43:41.607Z,5.53
2023-12-11T08:49:15.138Z,6.68
2023-12-11T08:54:58.292Z,13.00
2023-12-11T09:00:30.239Z,12.30
2023-12-11T09:05:58.056Z,9.27
2023-12-11T09:11:21.344Z,7.95
2023-12-11T09:16:46.375Z,6.20
2023-12-11T09:22:14.250Z,6.75
2023-12-11T09:27:40.171Z,7.80
2023-12-11T09:33:14.097Z,5.97
2023-12-11T09:38:35.740Z,6.00
2023-12-11T09:43:58.420Z,6.78
2023-12-11T09:49:20.236Z,5.05
2023-12-11T09:54:42.274Z,6.33
2023-12-11T10:05:29.332Z,4.72
2023-12-11T10:10:50.487Z,5.27
2023-12-11T10:16:47.541Z,6.33
2023-12-11T10:22:08.644Z,8.52
2023-12-11T10:27:30.193Z,5.60
2023-12-11T10:32:51.762Z,6.80
2023-12-11T10:38:21.492Z,4.60
2023-12-11T10:49:07.854Z,4.60
2023-12-11T10:54:29.629Z,5.45
2023-12-11T10:59:52.202Z,4.82
2023-12-11T11:05:14.184Z,5.13
2023-12-11T11:10:50.779Z,5.45
2023-12-11T11:16:12.496Z,5.78
2023-12-11T11:21:33.926Z,4.53
2023-12-11T11:26:55.655Z,4.82
2023-12-11T11:32:19.244Z,5.55
2023-12-11T11:37:50.432Z,80.97
2023-12-11T11:43:12.334Z,32.65
2023-12-11T11:48:43.245Z,32.83
2023-12-11T11:54:06.780Z,65.57
2023-12-11T11:59:28.110Z,48.20
2023-12-11T12:04:49.639Z,31.30
2023-12-11T12:10:13.133Z,29.42
2023-12-11T12:15:45.929Z,62.40
2023-12-11T12:21:09.188Z,47.00
2023-12-11T12:26:32.535Z,57.42
2023-12-11T12:31:53.650Z,34.55
2023-12-11T12:37:15.312Z,61.38
2023-12-11T12:42:40.547Z,39.63
2023-12-11T12:48:05.812Z,30.88
2023-12-11T12:53:28.135Z,33.40
2023-12-11T12:58:50.325Z,42.20
2023-12-11T13:04:12.842Z,35.05
2023-12-11T13:09:36.005Z,55.05
2023-12-11T13:15:08.884Z,33.30
2023-12-11T13:20:35.198Z,23.55
2023-12-11T13:26:09.112Z,35.42
2023-12-11T13:31:30.627Z,31.48
2023-12-11T13:36:54.392Z,20.70
2023-12-11T13:42:16.374Z,26.95
2023-12-11T13:47:42.737Z,54.63
2023-12-11T13:53:04.836Z,28.02
2023-12-11T14:03:56.007Z,24.33
2023-12-11T14:09:22.946Z,31.27
2023-12-11T14:14:44.194Z,45.08
2023-12-11T14:20:07.431Z,43.53
2023-12-11T14:25:29.703Z,26.98
2023-12-11T14:30:53.158Z,33.13
2023-12-11T14:36:19.300Z,23.83
2023-12-11T14:41:44.899Z,24.15
2023-12-11T14:47:07.610Z,24.58
2023-12-11T14:52:29.317Z,31.55
2023-12-11T14:57:51.610Z,24.27
2023-12-11T15:03:12.693Z,30.83
2023-12-11T15:08:34.890Z,26.30
2023-12-11T15:19:17.926Z,32.33
2023-12-11T15:24:39.134Z,54.00
2023-12-11T15:30:00.301Z,54.50
2023-12-11T15:35:21.933Z,53.53
2023-12-11T15:40:44.013Z,38.17
2023-12-11T15:51:31.076Z,51.90
2023-12-11T15:56:52.878Z,50.33
2023-12-11T16:02:14.120Z,54.65
2023-12-11T16:07:36.205Z,29.03
2023-12-11T16:12:57.774Z,20.60
2023-12-11T16:23:41.483Z,19.75
2023-12-11T16:29:03.182Z,15.25
2023-12-11T16:34:24.809Z,21.00
2023-12-11T16:39:47.337Z,13.57
2023-12-11T16:45:11.924Z,13.35
2023-12-11T16:50:33.470Z,8.88
2023-12-11T17:01:17.425Z,12.80
2023-12-11T17:06:38.860Z,14.85
2023-12-11T17:12:00.558Z,14.50
2023-12-11T17:17:22.613Z,19.25
2023-12-11T17:22:44.365Z,33.63
2023-12-11T17:28:06.172Z,19.40
2023-12-11T17:33:28.061Z,34.88
2023-12-11T17:38:57.596Z,28.90
2023-12-11T17:44:20.961Z,31.23
2023-12-11T17:49:42.871Z,18.27
2023-12-11T17:55:05.473Z,18.50
2023-12-11T18:00:27.087Z,28.45
2023-12-11T18:05:48.939Z,26.20
2023-12-11T18:11:10.072Z,61.05
2023-12-11T18:16:31.328Z,68.53
2023-12-11T18:21:53.149Z,111.75
2023-12-11T18:27:14.457Z,58.60
2023-12-11T18:32:39.211Z,71.55
2023-12-11T18:38:00.674Z,67.30
2023-12-11T18:43:23.813Z,51.88
2023-12-11T18:48:46.379Z,47.03
2023-12-11T18:54:08.290Z,46.13
2023-12-11T18:59:29.493Z,40.20
2023-12-11T19:04:53.674Z,43.87
2023-12-11T19:10:15.288Z,46.75
2023-12-11T19:15:36.820Z,59.55
2023-12-11T19:20:58.394Z,33.67
2023-12-11T19:26:19.596Z,26.95
2023-12-11T19:31:44.227Z,28.88
2023-12-11T19:37:05.837Z,27.55
2023-12-11T19:42:27.678Z,30.92
2023-12-11T19:47:48.905Z,29.27
2023-12-11T19:53:10.352Z,22.47
2023-12-11T19:58:32.883Z,22.77
2023-12-11T20:03:54.976Z,27.30
2023-12-11T20:14:38.876Z,20.63
2023-12-11T20:20:06.057Z,23.85
2023-12-11T20:25:27.732Z,24.88
2023-12-11T20:30:49.194Z,19.67
2023-12-11T20:36:20.186Z,21.15
2023-12-11T20:41:41.517Z,31.83
2023-12-11T20:47:02.615Z,30.50
2023-12-11T20:52:24.165Z,23.47
2023-12-11T20:57:45.576Z,18.83
2023-12-11T21:03:06.924Z,17.97
2023-12-11T21:08:28.814Z,17.35
2023-12-11T21:13:50.974Z,19.73
2023-12-11T21:19:12.961Z,18.27
2023-12-11T21:24:36.997Z,17.88
2023-12-11T21:29:58.826Z,15.43
2023-12-11T21:35:20.426Z,14.20
2023-12-11T21:40:42.193Z,14.60
2023-12-11T21:46:03.998Z,14.77
2023-12-11T21:51:26.093Z,14.43
2023-12-11T21:56:47.879Z,14.63
2023-12-11T22:02:09.557Z,15.00
2023-12-11T22:07:31.734Z,15.55
2023-12-11T22:18:17.802Z,16.42
2023-12-11T22:23:47.238Z,22.45
2023-12-11T22:29:16.234Z,34.90
2023-12-11T22:34:52.754Z,22.43
2023-12-11T22:40:32.023Z,19.75
2023-12-11T22:46:23.921Z,18.40
2023-12-11T23:17:39.067Z,18.98
2023-12-11T23:23:04.918Z,20.13
2023-12-11T23:28:26.339Z,19.70
2023-12-11T23:33:49.228Z,18.88
2023-12-11T23:39:16.426Z,20.23
2023-12-11T23:44:38.011Z,19.08
2023-12-11T23:50:05.678Z,18.50
2023-12-11T23:55:32.366Z,19.70
